sensor_id;sensor_type;location;lat;lon;timestamp;P1;durP1;ratioP1;P2;durP2;ratioP2
735;SDS011;352;48.626;9.238;2023-06-05T00:00:31;4.17;;;3.77;;
735;SDS011;352;48.626;9.238;2023-06-05T00:02:58;3.90;;;3.60;;
735;SDS011;352;48.626;9.238;2023-06-05T00:05:25;4.10;;;3.77;;
735;SDS011;352;48.626;9.238;2023-06-05T00:07:52;4.07;;;3.70;;
735;SDS011;352;48.626;9.238;2023-06-05T00:10:22;3.63;;;3.37;;
735;SDS011;352;48.626;9.238;2023-06-05T00:12:51;3.80;;;3.50;;
735;SDS011;352;48.626;9.238;2023-06-05T00:15:24;3.70;;;3.40;;
735;SDS011;352;48.626;9.238;2023-06-05T00:18:12;4.17;;;3.77;;
735;SDS011;352;48.626;9.238;2023-06-05T00:21:19;4.17;;;3.87;;
735;SDS011;352;48.626;9.238;2023-06-05T00:23:46;4.43;;;4.03;;
735;SDS011;352;48.626;9.238;2023-06-05T00:26:14;4.20;;;3.87;;
735;SDS011;352;48.626;9.238;2023-06-05T00:28:41;3.87;;;3.57;;
735;SDS011;352;48.626;9.238;2023-06-05T00:31:18;4.33;;;3.93;;
735;SDS011;352;48.626;9.238;2023-06-05T00:33:46;4.10;;;3.80;;
735;SDS011;352;48.626;9.238;2023-06-05T00:36:16;4.93;;;3.87;;
735;SDS011;352;48.626;9.238;2023-06-05T00:38:43;4.30;;;3.90;;
735;SDS011;352;48.626;9.238;2023-06-05T00:41:10;6.37;;;5.77;;
735;SDS011;352;48.626;9.238;2023-06-05T00:43:39;9.00;;;8.10;;
735;SDS011;352;48.626;9.238;2023-06-05T00:46:05;5.77;;;5.10;;
735;SDS011;352;48.626;9.238;2023-06-05T00:48:33;4.40;;;4.00;;
735;SDS011;352;48.626;9.238;2023-06-05T00:51:00;4.10;;;3.70;;
735;SDS011;352;48.626;9.238;2023-06-05T00:53:30;5.03;;;3.60;;
735;SDS011;352;48.626;9.238;2023-06-05T00:56:03;6.50;;;3.57;;
735;SDS011;352;48.626;9.238;2023-06-05T00:58:31;4.10;;;3.70;;
735;SDS011;352;48.626;9.238;2023-06-05T01:00:59;3.90;;;3.60;;
735;SDS011;352;48.626;9.238;2023-06-05T01:03:28;3.90;;;3.60;;
735;SDS011;352;48.626;9.238;2023-06-05T01:05:58;4.63;;;3.67;;
735;SDS011;352;48.626;9.238;2023-06-05T01:08:28;4.90;;;4.17;;
735;SDS011;352;48.626;9.238;2023-06-05T01:11:04;4.80;;;3.90;;
735;SDS011;352;48.626;9.238;2023-06-05T01:13:36;4.37;;;4.00;;
735;SDS011;352;48.626;9.238;2023-06-05T01:16:11;3.97;;;3.67;;
735;SDS011;352;48.626;9.238;2023-06-05T01:18:37;4.00;;;3.70;;
735;SDS011;352;48.626;9.238;2023-06-05T01:21:10;4.50;;;4.10;;
735;SDS011;352;48.626;9.238;2023-06-05T01:23:40;4.30;;;3.87;;
735;SDS011;352;48.626;9.238;2023-06-05T01:26:09;4.33;;;3.70;;
735;SDS011;352;48.626;9.238;2023-06-05T01:28:44;5.07;;;4.33;;
735;SDS011;352;48.626;9.238;2023-06-05T01:31:15;5.40;;;4.27;;
735;SDS011;352;48.626;9.238;2023-06-05T01:33:47;4.20;;;3.90;;
735;SDS011;352;48.626;9.238;2023-06-05T01:36:21;4.43;;;3.77;;
735;SDS011;352;48.626;9.238;2023-06-05T01:38:50;4.00;;;3.50;;
735;SDS011;352;48.626;9.238;2023-06-05T01:41:19;4.00;;;3.70;;
735;SDS011;352;48.626;9.238;2023-06-05T01:43:46;5.30;;;3.70;;
735;SDS011;352;48.626;9.238;2023-06-05T01:46:15;8.83;;;3.57;;
735;SDS011;352;48.626;9.238;2023-06-05T01:48:43;4.37;;;3.97;;
735;SDS011;352;48.626;9.238;2023-06-05T01:51:10;4.50;;;4.10;;
735;SDS011;352;48.626;9.238;2023-06-05T01:53:37;4.30;;;4.00;;
735;SDS011;352;48.626;9.238;2023-06-05T01:56:05;3.90;;;3.60;;
735;SDS011;352;48.626;9.238;2023-06-05T01:58:33;4.00;;;3.70;;
735;SDS011;352;48.626;9.238;2023-06-05T02:01:02;4.07;;;3.77;;
735;SDS011;352;48.626;9.238;2023-06-05T02:03:30;4.50;;;4.10;;
735;SDS011;352;48.626;9.238;2023-06-05T02:05:57;4.80;;;3.87;;
735;SDS011;352;48.626;9.238;2023-06-05T02:08:23;4.30;;;3.90;;
735;SDS011;352;48.626;9.238;2023-06-05T02:10:50;5.20;;;3.83;;
735;SDS011;352;48.626;9.238;2023-06-05T02:13:19;4.70;;;4.30;;
735;SDS011;352;48.626;9.238;2023-06-05T02:15:47;4.60;;;4.20;;
735;SDS011;352;48.626;9.238;2023-06-05T02:18:20;4.93;;;3.70;;
735;SDS011;352;48.626;9.238;2023-06-05T02:20:52;4.20;;;3.80;;
735;SDS011;352;48.626;9.238;2023-06-05T02:23:19;4.10;;;3.80;;
735;SDS011;352;48.626;9.238;2023-06-05T02:25:46;4.37;;;3.97;;
735;SDS011;352;48.626;9.238;2023-06-05T02:28:13;4.47;;;4.07;;
735;SDS011;352;48.626;9.238;2023-06-05T02:30:42;4.10;;;3.80;;
735;SDS011;352;48.626;9.238;2023-06-05T02:33:09;4.30;;;3.93;;
735;SDS011;352;48.626;9.238;2023-06-05T02:35:37;4.67;;;4.17;;
735;SDS011;352;48.626;9.238;2023-06-05T02:38:05;4.87;;;4.43;;
735;SDS011;352;48.626;9.238;2023-06-05T02:40:32;5.40;;;4.50;;
735;SDS011;352;48.626;9.238;2023-06-05T02:42:59;4.83;;;4.33;;
735;SDS011;352;48.626;9.238;2023-06-05T02:45:26;5.33;;;4.17;;
735;SDS011;352;48.626;9.238;2023-06-05T02:47:54;6.23;;;4.00;;
735;SDS011;352;48.626;9.238;2023-06-05T02:50:21;4.90;;;4.50;;
735;SDS011;352;48.626;9.238;2023-06-05T02:52:48;5.20;;;4.80;;
735;SDS011;352;48.626;9.238;2023-06-05T02:55:14;4.80;;;4.30;;
735;SDS011;352;48.626;9.238;2023-06-05T02:57:42;4.40;;;4.00;;
735;SDS011;352;48.626;9.238;2023-06-05T03:00:10;4.40;;;4.10;;
735;SDS011;352;48.626;9.238;2023-06-05T03:02:41;4.43;;;4.07;;
735;SDS011;352;48.626;9.238;2023-06-05T03:05:14;4.10;;;3.80;;
735;SDS011;352;48.626;9.238;2023-06-05T03:07:42;4.23;;;3.93;;
735;SDS011;352;48.626;9.238;2023-06-05T03:10:10;6.30;;;3.93;;
735;SDS011;352;48.626;9.238;2023-06-05T03:12:36;5.23;;;4.47;;
735;SDS011;352;48.626;9.238;2023-06-05T03:15:03;5.97;;;4.13;;
735;SDS011;352;48.626;9.238;2023-06-05T03:17:30;4.30;;;4.00;;
735;SDS011;352;48.626;9.238;2023-06-05T03:19:57;4.50;;;4.10;;
735;SDS011;352;48.626;9.238;2023-06-05T03:22:25;6.60;;;4.70;;
735;SDS011;352;48.626;9.238;2023-06-05T03:24:52;4.57;;;4.17;;
735;SDS011;352;48.626;9.238;2023-06-05T03:27:19;4.17;;;3.77;;
735;SDS011;352;48.626;9.238;2023-06-05T03:29:46;4.30;;;3.90;;
735;SDS011;352;48.626;9.238;2023-06-05T03:32:13;4.37;;;3.90;;
735;SDS011;352;48.626;9.238;2023-06-05T03:34:39;5.90;;;3.60;;
735;SDS011;352;48.626;9.238;2023-06-05T03:37:08;4.50;;;4.20;;
735;SDS011;352;48.626;9.238;2023-06-05T03:39:36;4.30;;;4.00;;
735;SDS011;352;48.626;9.238;2023-06-05T03:42:03;4.43;;;4.07;;
735;SDS011;352;48.626;9.238;2023-06-05T03:44:31;4.40;;;4.00;;
735;SDS011;352;48.626;9.238;2023-06-05T03:46:58;3.90;;;3.60;;
735;SDS011;352;48.626;9.238;2023-06-05T03:49:25;4.40;;;4.00;;
735;SDS011;352;48.626;9.238;2023-06-05T03:51:53;5.13;;;4.27;;
735;SDS011;352;48.626;9.238;2023-06-05T03:54:26;4.47;;;4.10;;
735;SDS011;352;48.626;9.238;2023-06-05T03:56:54;4.60;;;3.90;;
735;SDS011;352;48.626;9.238;2023-06-05T03:59:22;3.73;;;3.43;;
735;SDS011;352;48.626;9.238;2023-06-05T04:01:50;4.60;;;4.20;;
735;SDS011;352;48.626;9.238;2023-06-05T04:04:17;4.80;;;4.43;;
735;SDS011;352;48.626;9.238;2023-06-05T04:06:44;4.53;;;4.13;;
735;SDS011;352;48.626;9.238;2023-06-05T04:09:10;4.77;;;4.27;;
735;SDS011;352;48.626;9.238;2023-06-05T04:11:37;4.30;;;3.90;;
735;SDS011;352;48.626;9.238;2023-06-05T04:14:06;4.43;;;4.03;;
735;SDS011;352;48.626;9.238;2023-06-05T04:16:34;4.40;;;4.00;;
735;SDS011;352;48.626;9.238;2023-06-05T04:19:03;4.30;;;3.90;;
735;SDS011;352;48.626;9.238;2023-06-05T04:21:31;4.47;;;4.10;;
735;SDS011;352;48.626;9.238;2023-06-05T04:23:58;3.87;;;3.57;;
735;SDS011;352;48.626;9.238;2023-06-05T04:26:25;4.50;;;4.20;;
735;SDS011;352;48.626;9.238;2023-06-05T04:28:51;5.03;;;4.53;;
735;SDS011;352;48.626;9.238;2023-06-05T04:31:22;5.13;;;4.27;;
735;SDS011;352;48.626;9.238;2023-06-05T04:33:50;4.30;;;3.90;;
735;SDS011;352;48.626;9.238;2023-06-05T04:36:17;5.43;;;4.00;;
735;SDS011;352;48.626;9.238;2023-06-05T04:38:44;4.83;;;4.10;;
735;SDS011;352;48.626;9.238;2023-06-05T04:41:11;5.50;;;5.10;;
735;SDS011;352;48.626;9.238;2023-06-05T04:43:38;4.93;;;4.53;;
735;SDS011;352;48.626;9.238;2023-06-05T04:46:05;4.60;;;4.20;;
735;SDS011;352;48.626;9.238;2023-06-05T04:48:33;4.70;;;4.30;;
735;SDS011;352;48.626;9.238;2023-06-05T04:51:01;5.20;;;4.40;;
735;SDS011;352;48.626;9.238;2023-06-05T04:53:28;4.90;;;4.50;;
735;SDS011;352;48.626;9.238;2023-06-05T04:55:56;5.13;;;4.73;;
735;SDS011;352;48.626;9.238;2023-06-05T04:58:24;5.30;;;4.90;;
735;SDS011;352;48.626;9.238;2023-06-05T05:00:51;4.40;;;4.10;;
735;SDS011;352;48.626;9.238;2023-06-05T05:03:18;5.43;;;4.93;;
735;SDS011;352;48.626;9.238;2023-06-05T05:05:47;4.90;;;4.50;;
735;SDS011;352;48.626;9.238;2023-06-05T05:08:13;6.20;;;4.97;;
735;SDS011;352;48.626;9.238;2023-06-05T05:10:40;5.50;;;5.00;;
735;SDS011;352;48.626;9.238;2023-06-05T05:13:07;5.70;;;5.10;;
735;SDS011;352;48.626;9.238;2023-06-05T05:15:34;5.80;;;5.30;;
735;SDS011;352;48.626;9.238;2023-06-05T05:18:00;5.43;;;4.97;;
735;SDS011;352;48.626;9.238;2023-06-05T05:20:28;6.37;;;4.83;;
735;SDS011;352;48.626;9.238;2023-06-05T05:22:58;5.60;;;5.20;;
735;SDS011;352;48.626;9.238;2023-06-05T05:25:25;4.87;;;4.57;;
735;SDS011;352;48.626;9.238;2023-06-05T05:27:52;5.27;;;4.97;;
735;SDS011;352;48.626;9.238;2023-06-05T05:30:19;4.60;;;4.27;;
735;SDS011;352;48.626;9.238;2023-06-05T05:32:46;5.73;;;5.33;;
735;SDS011;352;48.626;9.238;2023-06-05T05:35:13;6.00;;;5.40;;
735;SDS011;352;48.626;9.238;2023-06-05T05:37:40;5.17;;;4.83;;
735;SDS011;352;48.626;9.238;2023-06-05T05:40:09;5.33;;;4.97;;
735;SDS011;352;48.626;9.238;2023-06-05T05:42:36;5.40;;;5.00;;
735;SDS011;352;48.626;9.238;2023-06-05T05:45:03;5.80;;;5.40;;
735;SDS011;352;48.626;9.238;2023-06-05T05:47:31;6.00;;;5.10;;
735;SDS011;352;48.626;9.238;2023-06-05T05:49:57;5.03;;;4.63;;
735;SDS011;352;48.626;9.238;2023-06-05T05:52:24;5.27;;;4.87;;
735;SDS011;352;48.626;9.238;2023-06-05T05:54:51;5.67;;;4.90;;
735;SDS011;352;48.626;9.238;2023-06-05T05:57:19;4.50;;;4.10;;
735;SDS011;352;48.626;9.238;2023-06-05T05:59:46;6.20;;;4.50;;
735;SDS011;352;48.626;9.238;2023-06-05T06:02:13;5.60;;;5.10;;
735;SDS011;352;48.626;9.238;2023-06-05T06:04:39;4.83;;;4.33;;
735;SDS011;352;48.626;9.238;2023-06-05T06:07:09;5.50;;;5.00;;
735;SDS011;352;48.626;9.238;2023-06-05T06:09:35;4.60;;;4.23;;
735;SDS011;352;48.626;9.238;2023-06-05T06:12:03;5.70;;;5.20;;
735;SDS011;352;48.626;9.238;2023-06-05T06:14:32;5.63;;;5.20;;
735;SDS011;352;48.626;9.238;2023-06-05T06:16:59;6.03;;;5.40;;
735;SDS011;352;48.626;9.238;2023-06-05T06:19:27;6.33;;;5.80;;
735;SDS011;352;48.626;9.238;2023-06-05T06:21:54;5.80;;;5.17;;
735;SDS011;352;48.626;9.238;2023-06-05T06:24:21;6.43;;;5.90;;
735;SDS011;352;48.626;9.238;2023-06-05T06:26:48;7.33;;;6.17;;
735;SDS011;352;48.626;9.238;2023-06-05T06:29:17;7.50;;;5.63;;
735;SDS011;352;48.626;9.238;2023-06-05T06:31:46;6.40;;;5.90;;
735;SDS011;352;48.626;9.238;2023-06-05T06:34:14;7.67;;;5.93;;
735;SDS011;352;48.626;9.238;2023-06-05T06:36:41;6.43;;;5.77;;
735;SDS011;352;48.626;9.238;2023-06-05T06:39:09;5.90;;;5.50;;
735;SDS011;352;48.626;9.238;2023-06-05T06:41:36;11.70;;;6.60;;
735;SDS011;352;48.626;9.238;2023-06-05T06:44:03;5.90;;;5.27;;
735;SDS011;352;48.626;9.238;2023-06-05T06:46:30;6.27;;;5.70;;
735;SDS011;352;48.626;9.238;2023-06-05T06:48:59;6.47;;;5.97;;
735;SDS011;352;48.626;9.238;2023-06-05T06:51:25;7.13;;;6.40;;
735;SDS011;352;48.626;9.238;2023-06-05T06:53:52;9.00;;;5.60;;
735;SDS011;352;48.626;9.238;2023-06-05T06:56:19;8.57;;;5.20;;
735;SDS011;352;48.626;9.238;2023-06-05T06:58:46;6.40;;;5.77;;
735;SDS011;352;48.626;9.238;2023-06-05T07:01:13;6.30;;;5.80;;
735;SDS011;352;48.626;9.238;2023-06-05T07:03:41;6.47;;;5.70;;
735;SDS011;352;48.626;9.238;2023-06-05T07:06:10;6.53;;;5.93;;
735;SDS011;352;48.626;9.238;2023-06-05T07:08:37;6.70;;;6.20;;
735;SDS011;352;48.626;9.238;2023-06-05T07:11:04;7.10;;;6.17;;
735;SDS011;352;48.626;9.238;2023-06-05T07:13:31;6.43;;;5.87;;
735;SDS011;352;48.626;9.238;2023-06-05T07:15:58;6.60;;;6.00;;
735;SDS011;352;48.626;9.238;2023-06-05T07:18:25;6.77;;;6.17;;
735;SDS011;352;48.626;9.238;2023-06-05T07:20:52;7.83;;;6.60;;
735;SDS011;352;48.626;9.238;2023-06-05T07:23:20;6.33;;;5.83;;
735;SDS011;352;48.626;9.238;2023-06-05T07:25:47;5.70;;;5.30;;
735;SDS011;352;48.626;9.238;2023-06-05T07:28:14;5.80;;;5.40;;
735;SDS011;352;48.626;9.238;2023-06-05T07:30:41;7.67;;;7.07;;
735;SDS011;352;48.626;9.238;2023-06-05T07:33:09;5.97;;;5.57;;
735;SDS011;352;48.626;9.238;2023-06-05T07:35:36;5.97;;;5.40;;
735;SDS011;352;48.626;9.238;2023-06-05T07:38:02;6.67;;;6.17;;
735;SDS011;352;48.626;9.238;2023-06-05T07:40:31;6.30;;;5.80;;
735;SDS011;352;48.626;9.238;2023-06-05T07:43:00;6.47;;;5.97;;
735;SDS011;352;48.626;9.238;2023-06-05T07:45:27;6.97;;;6.47;;
735;SDS011;352;48.626;9.238;2023-06-05T07:48:00;6.53;;;5.90;;
735;SDS011;352;48.626;9.238;2023-06-05T07:50:27;6.20;;;5.63;;
735;SDS011;352;48.626;9.238;2023-06-05T07:52:57;7.40;;;6.80;;
735;SDS011;352;48.626;9.238;2023-06-05T07:55:23;7.20;;;6.60;;
735;SDS011;352;48.626;9.238;2023-06-05T07:57:53;6.70;;;6.10;;
735;SDS011;352;48.626;9.238;2023-06-05T08:00:23;6.60;;;6.10;;
735;SDS011;352;48.626;9.238;2023-06-05T08:02:52;8.00;;;6.50;;
735;SDS011;352;48.626;9.238;2023-06-05T08:05:18;7.70;;;6.30;;
735;SDS011;352;48.626;9.238;2023-06-05T08:07:45;6.60;;;6.10;;
735;SDS011;352;48.626;9.238;2023-06-05T08:10:14;7.07;;;6.20;;
735;SDS011;352;48.626;9.238;2023-06-05T08:12:41;6.80;;;6.40;;
735;SDS011;352;48.626;9.238;2023-06-05T08:15:09;7.27;;;6.60;;
735;SDS011;352;48.626;9.238;2023-06-05T08:17:36;7.03;;;6.47;;
735;SDS011;352;48.626;9.238;2023-06-05T08:20:03;7.63;;;6.63;;
735;SDS011;352;48.626;9.238;2023-06-05T08:22:32;7.83;;;7.13;;
735;SDS011;352;48.626;9.238;2023-06-05T08:24:59;7.80;;;7.20;;
735;SDS011;352;48.626;9.238;2023-06-05T08:27:25;8.20;;;7.50;;
735;SDS011;352;48.626;9.238;2023-06-05T08:29:52;7.00;;;6.50;;
735;SDS011;352;48.626;9.238;2023-06-05T08:32:20;7.17;;;6.67;;
735;SDS011;352;48.626;9.238;2023-06-05T08:34:47;7.23;;;6.73;;
735;SDS011;352;48.626;9.238;2023-06-05T08:37:13;7.93;;;7.33;;
735;SDS011;352;48.626;9.238;2023-06-05T08:39:41;8.47;;;7.87;;
735;SDS011;352;48.626;9.238;2023-06-05T08:42:08;7.87;;;7.27;;
735;SDS011;352;48.626;9.238;2023-06-05T08:44:37;7.93;;;7.50;;
735;SDS011;352;48.626;9.238;2023-06-05T08:47:04;7.60;;;7.07;;
735;SDS011;352;48.626;9.238;2023-06-05T08:49:35;8.77;;;8.07;;
735;SDS011;352;48.626;9.238;2023-06-05T08:52:07;8.97;;;8.17;;
735;SDS011;352;48.626;9.238;2023-06-05T08:54:35;8.40;;;7.60;;
735;SDS011;352;48.626;9.238;2023-06-05T08:57:06;8.40;;;7.60;;
735;SDS011;352;48.626;9.238;2023-06-05T08:59:34;8.03;;;7.43;;
735;SDS011;352;48.626;9.238;2023-06-05T09:02:01;8.73;;;7.83;;
735;SDS011;352;48.626;9.238;2023-06-05T09:04:27;9.50;;;8.63;;
735;SDS011;352;48.626;9.238;2023-06-05T09:06:58;7.80;;;7.30;;
735;SDS011;352;48.626;9.238;2023-06-05T09:09:25;7.90;;;7.30;;
735;SDS011;352;48.626;9.238;2023-06-05T09:12:02;7.80;;;7.30;;
735;SDS011;352;48.626;9.238;2023-06-05T09:14:29;7.77;;;7.20;;
735;SDS011;352;48.626;9.238;2023-06-05T09:16:57;8.30;;;7.70;;
735;SDS011;352;48.626;9.238;2023-06-05T09:19:25;8.37;;;7.67;;
735;SDS011;352;48.626;9.238;2023-06-05T09:22:03;8.67;;;7.97;;
735;SDS011;352;48.626;9.238;2023-06-05T09:24:31;8.13;;;7.60;;
735;SDS011;352;48.626;9.238;2023-06-05T09:26:59;8.27;;;7.67;;
735;SDS011;352;48.626;9.238;2023-06-05T09:29:29;8.77;;;8.00;;
735;SDS011;352;48.626;9.238;2023-06-05T09:31:58;8.30;;;7.70;;
735;SDS011;352;48.626;9.238;2023-06-05T09:34:26;8.20;;;7.50;;
735;SDS011;352;48.626;9.238;2023-06-05T09:36:55;7.30;;;6.80;;
735;SDS011;352;48.626;9.238;2023-06-05T09:39:24;8.63;;;7.80;;
735;SDS011;352;48.626;9.238;2023-06-05T09:41:52;8.00;;;7.47;;
735;SDS011;352;48.626;9.238;2023-06-05T09:44:20;8.27;;;7.77;;
735;SDS011;352;48.626;9.238;2023-06-05T09:46:51;8.70;;;8.00;;
735;SDS011;352;48.626;9.238;2023-06-05T09:49:30;8.77;;;8.13;;
735;SDS011;352;48.626;9.238;2023-06-05T09:51:59;8.20;;;7.60;;
735;SDS011;352;48.626;9.238;2023-06-05T09:54:29;8.50;;;7.53;;
735;SDS011;352;48.626;9.238;2023-06-05T09:56:57;9.90;;;8.00;;
735;SDS011;352;48.626;9.238;2023-06-05T09:59:27;7.50;;;7.00;;
735;SDS011;352;48.626;9.238;2023-06-05T10:01:56;8.30;;;7.67;;
735;SDS011;352;48.626;9.238;2023-06-05T10:04:51;8.20;;;7.53;;
735;SDS011;352;48.626;9.238;2023-06-05T10:07:42;8.13;;;7.20;;
735;SDS011;352;48.626;9.238;2023-06-05T10:10:11;8.40;;;7.50;;
735;SDS011;352;48.626;9.238;2023-06-05T10:12:40;8.00;;;7.50;;
735;SDS011;352;48.626;9.238;2023-06-05T10:15:09;7.90;;;7.20;;
735;SDS011;352;48.626;9.238;2023-06-05T10:17:37;7.70;;;7.20;;
735;SDS011;352;48.626;9.238;2023-06-05T10:20:06;7.40;;;7.00;;
735;SDS011;352;48.626;9.238;2023-06-05T10:22:34;10.10;;;9.30;;
735;SDS011;352;48.626;9.238;2023-06-05T10:25:03;8.30;;;7.50;;
735;SDS011;352;48.626;9.238;2023-06-05T10:33:41;7.80;;;7.30;;
735;SDS011;352;48.626;9.238;2023-06-05T10:36:21;7.37;;;6.90;;
735;SDS011;352;48.626;9.238;2023-06-05T10:39:05;7.97;;;7.37;;
735;SDS011;352;48.626;9.238;2023-06-05T10:41:33;8.00;;;7.50;;
735;SDS011;352;48.626;9.238;2023-06-05T10:44:01;7.33;;;6.73;;
735;SDS011;352;48.626;9.238;2023-06-05T10:46:28;7.90;;;7.30;;
735;SDS011;352;48.626;9.238;2023-06-05T10:49:09;7.80;;;7.20;;
735;SDS011;352;48.626;9.238;2023-06-05T10:51:38;8.93;;;8.10;;
735;SDS011;352;48.626;9.238;2023-06-05T10:54:07;8.27;;;7.63;;
735;SDS011;352;48.626;9.238;2023-06-05T10:56:57;8.00;;;7.40;;
735;SDS011;352;48.626;9.238;2023-06-05T10:59:28;8.23;;;7.53;;
735;SDS011;352;48.626;9.238;2023-06-05T11:05:06;8.40;;;7.73;;
735;SDS011;352;48.626;9.238;2023-06-05T11:07:38;8.03;;;7.53;;
735;SDS011;352;48.626;9.238;2023-06-05T11:10:06;7.50;;;6.77;;
735;SDS011;352;48.626;9.238;2023-06-05T11:15:40;7.33;;;6.83;;
735;SDS011;352;48.626;9.238;2023-06-05T11:18:29;6.70;;;6.30;;
735;SDS011;352;48.626;9.238;2023-06-05T11:20:59;8.07;;;7.50;;
735;SDS011;352;48.626;9.238;2023-06-05T11:23:26;6.77;;;6.37;;
735;SDS011;352;48.626;9.238;2023-06-05T11:25:55;7.27;;;6.67;;
735;SDS011;352;48.626;9.238;2023-06-05T11:28:38;7.60;;;7.00;;
735;SDS011;352;48.626;9.238;2023-06-05T11:31:08;6.83;;;6.33;;
735;SDS011;352;48.626;9.238;2023-06-05T11:33:35;7.30;;;6.70;;
735;SDS011;352;48.626;9.238;2023-06-05T11:36:03;7.37;;;6.60;;
735;SDS011;352;48.626;9.238;2023-06-05T11:38:32;8.23;;;6.23;;
735;SDS011;352;48.626;9.238;2023-06-05T11:41:00;7.27;;;6.77;;
735;SDS011;352;48.626;9.238;2023-06-05T11:43:32;6.67;;;5.87;;
735;SDS011;352;48.626;9.238;2023-06-05T11:46:08;6.10;;;5.70;;
735;SDS011;352;48.626;9.238;2023-06-05T11:48:37;7.10;;;6.50;;
735;SDS011;352;48.626;9.238;2023-06-05T11:51:09;6.50;;;6.00;;
735;SDS011;352;48.626;9.238;2023-06-05T11:53:43;8.80;;;6.40;;
735;SDS011;352;48.626;9.238;2023-06-05T11:56:13;7.10;;;6.43;;
735;SDS011;352;48.626;9.238;2023-06-05T11:58:41;6.70;;;6.20;;
735;SDS011;352;48.626;9.238;2023-06-05T12:01:11;6.90;;;6.30;;
735;SDS011;352;48.626;9.238;2023-06-05T12:03:42;6.90;;;6.40;;
735;SDS011;352;48.626;9.238;2023-06-05T12:06:10;6.00;;;5.60;;
735;SDS011;352;48.626;9.238;2023-06-05T12:08:38;7.10;;;6.40;;
735;SDS011;352;48.626;9.238;2023-06-05T12:11:18;6.50;;;6.00;;
735;SDS011;352;48.626;9.238;2023-06-05T12:13:48;7.07;;;6.17;;
735;SDS011;352;48.626;9.238;2023-06-05T12:16:17;6.50;;;5.97;;
735;SDS011;352;48.626;9.238;2023-06-05T12:18:45;6.17;;;5.67;;
735;SDS011;352;48.626;9.238;2023-06-05T12:21:20;6.23;;;5.63;;
735;SDS011;352;48.626;9.238;2023-06-05T12:23:48;6.73;;;6.30;;
735;SDS011;352;48.626;9.238;2023-06-05T12:26:15;6.03;;;5.53;;
735;SDS011;352;48.626;9.238;2023-06-05T12:28:43;6.77;;;6.20;;
735;SDS011;352;48.626;9.238;2023-06-05T12:31:11;6.90;;;6.30;;
735;SDS011;352;48.626;9.238;2023-06-05T12:34:01;7.30;;;6.70;;
735;SDS011;352;48.626;9.238;2023-06-05T12:36:28;6.67;;;6.13;;
735;SDS011;352;48.626;9.238;2023-06-05T12:39:01;7.00;;;6.50;;
735;SDS011;352;48.626;9.238;2023-06-05T12:41:30;6.63;;;6.13;;
735;SDS011;352;48.626;9.238;2023-06-05T12:43:58;6.90;;;6.40;;
735;SDS011;352;48.626;9.238;2023-06-05T12:46:25;7.20;;;6.60;;
735;SDS011;352;48.626;9.238;2023-06-05T12:48:54;6.90;;;6.40;;
735;SDS011;352;48.626;9.238;2023-06-05T12:51:22;7.03;;;6.43;;
735;SDS011;352;48.626;9.238;2023-06-05T12:53:49;6.57;;;6.13;;
735;SDS011;352;48.626;9.238;2023-06-05T12:56:16;6.40;;;6.00;;
735;SDS011;352;48.626;9.238;2023-06-05T12:58:43;6.70;;;6.20;;
735;SDS011;352;48.626;9.238;2023-06-05T13:01:10;6.53;;;6.03;;
735;SDS011;352;48.626;9.238;2023-06-05T13:03:37;6.30;;;5.90;;
735;SDS011;352;48.626;9.238;2023-06-05T13:06:05;7.53;;;6.53;;
735;SDS011;352;48.626;9.238;2023-06-05T13:08:32;6.53;;;6.00;;
735;SDS011;352;48.626;9.238;2023-06-05T13:10:58;6.17;;;5.60;;
735;SDS011;352;48.626;9.238;2023-06-05T13:13:25;6.17;;;5.57;;
735;SDS011;352;48.626;9.238;2023-06-05T13:15:53;8.87;;;6.30;;
735;SDS011;352;48.626;9.238;2023-06-05T13:18:20;5.73;;;5.23;;
735;SDS011;352;48.626;9.238;2023-06-05T13:20:46;6.00;;;5.60;;
735;SDS011;352;48.626;9.238;2023-06-05T13:23:15;6.90;;;5.20;;
735;SDS011;352;48.626;9.238;2023-06-05T13:25:41;6.30;;;5.73;;
735;SDS011;352;48.626;9.238;2023-06-05T13:28:08;8.10;;;5.40;;
735;SDS011;352;48.626;9.238;2023-06-05T13:30:35;6.63;;;6.10;;
735;SDS011;352;48.626;9.238;2023-06-05T13:33:02;6.57;;;6.07;;
735;SDS011;352;48.626;9.238;2023-06-05T13:35:28;6.63;;;6.03;;
735;SDS011;352;48.626;9.238;2023-06-05T13:37:55;9.83;;;5.50;;
735;SDS011;352;48.626;9.238;2023-06-05T13:40:23;6.80;;;6.20;;
735;SDS011;352;48.626;9.238;2023-06-05T13:42:52;5.97;;;5.57;;
735;SDS011;352;48.626;9.238;2023-06-05T13:45:18;6.13;;;5.67;;
735;SDS011;352;48.626;9.238;2023-06-05T13:47:45;6.47;;;5.87;;
735;SDS011;352;48.626;9.238;2023-06-05T13:50:12;6.37;;;5.87;;
735;SDS011;352;48.626;9.238;2023-06-05T13:52:39;6.73;;;5.80;;
735;SDS011;352;48.626;9.238;2023-06-05T13:55:06;5.90;;;5.50;;
735;SDS011;352;48.626;9.238;2023-06-05T13:57:34;7.80;;;7.10;;
735;SDS011;352;48.626;9.238;2023-06-05T14:00:01;6.70;;;6.20;;
735;SDS011;352;48.626;9.238;2023-06-05T14:02:29;6.83;;;6.30;;
735;SDS011;352;48.626;9.238;2023-06-05T14:04:55;6.17;;;5.57;;
735;SDS011;352;48.626;9.238;2023-06-05T14:07:22;6.60;;;6.00;;
735;SDS011;352;48.626;9.238;2023-06-05T14:09:49;6.30;;;5.50;;
735;SDS011;352;48.626;9.238;2023-06-05T14:12:16;5.73;;;5.23;;
735;SDS011;352;48.626;9.238;2023-06-05T14:14:44;6.97;;;6.40;;
735;SDS011;352;48.626;9.238;2023-06-05T14:17:11;7.73;;;7.13;;
735;SDS011;352;48.626;9.238;2023-06-05T14:19:38;6.77;;;6.17;;
735;SDS011;352;48.626;9.238;2023-06-05T14:22:05;6.50;;;6.00;;
735;SDS011;352;48.626;9.238;2023-06-05T14:24:33;6.83;;;6.33;;
735;SDS011;352;48.626;9.238;2023-06-05T14:27:00;7.57;;;6.70;;
735;SDS011;352;48.626;9.238;2023-06-05T14:29:26;7.00;;;6.40;;
735;SDS011;352;48.626;9.238;2023-06-05T14:31:54;7.20;;;6.50;;
735;SDS011;352;48.626;9.238;2023-06-05T14:34:21;7.00;;;6.50;;
735;SDS011;352;48.626;9.238;2023-06-05T14:36:48;8.53;;;6.03;;
735;SDS011;352;48.626;9.238;2023-06-05T14:39:16;6.83;;;6.03;;
735;SDS011;352;48.626;9.238;2023-06-05T14:41:44;7.57;;;6.87;;
735;SDS011;352;48.626;9.238;2023-06-05T14:44:11;7.03;;;6.17;;
735;SDS011;352;48.626;9.238;2023-06-05T14:46:38;7.23;;;6.60;;
735;SDS011;352;48.626;9.238;2023-06-05T14:49:06;7.67;;;7.17;;
735;SDS011;352;48.626;9.238;2023-06-05T14:51:33;8.77;;;6.67;;
735;SDS011;352;48.626;9.238;2023-06-05T14:53:59;7.67;;;6.90;;
735;SDS011;352;48.626;9.238;2023-06-05T14:56:26;7.23;;;6.60;;
735;SDS011;352;48.626;9.238;2023-06-05T14:58:53;8.10;;;7.03;;
735;SDS011;352;48.626;9.238;2023-06-05T15:01:20;7.20;;;6.67;;
735;SDS011;352;48.626;9.238;2023-06-05T15:03:46;6.70;;;6.30;;
735;SDS011;352;48.626;9.238;2023-06-05T15:06:14;6.63;;;6.13;;
735;SDS011;352;48.626;9.238;2023-06-05T15:08:42;7.00;;;6.50;;
735;SDS011;352;48.626;9.238;2023-06-05T15:11:09;6.60;;;6.00;;
735;SDS011;352;48.626;9.238;2023-06-05T15:13:36;7.17;;;6.47;;
735;SDS011;352;48.626;9.238;2023-06-05T15:16:02;6.77;;;6.17;;
735;SDS011;352;48.626;9.238;2023-06-05T15:18:29;6.90;;;6.40;;
735;SDS011;352;48.626;9.238;2023-06-05T15:20:56;6.70;;;6.20;;
735;SDS011;352;48.626;9.238;2023-06-05T15:23:24;9.30;;;6.37;;
735;SDS011;352;48.626;9.238;2023-06-05T15:25:51;5.90;;;5.50;;
735;SDS011;352;48.626;9.238;2023-06-05T15:28:18;8.87;;;6.50;;
735;SDS011;352;48.626;9.238;2023-06-05T15:30:44;7.13;;;6.53;;
735;SDS011;352;48.626;9.238;2023-06-05T15:33:13;6.50;;;6.00;;
735;SDS011;352;48.626;9.238;2023-06-05T15:35:40;8.10;;;6.33;;
735;SDS011;352;48.626;9.238;2023-06-05T15:38:09;8.50;;;6.13;;
735;SDS011;352;48.626;9.238;2023-06-05T15:40:37;9.70;;;6.90;;
735;SDS011;352;48.626;9.238;2023-06-05T15:43:04;6.07;;;5.47;;
735;SDS011;352;48.626;9.238;2023-06-05T15:45:33;6.50;;;5.90;;
735;SDS011;352;48.626;9.238;2023-06-05T15:48:00;6.43;;;5.87;;
735;SDS011;352;48.626;9.238;2023-06-05T15:50:27;6.30;;;5.83;;
735;SDS011;352;48.626;9.238;2023-06-05T15:52:54;7.03;;;6.27;;
735;SDS011;352;48.626;9.238;2023-06-05T15:55:21;9.03;;;6.30;;
735;SDS011;352;48.626;9.238;2023-06-05T15:57:49;6.00;;;5.50;;
735;SDS011;352;48.626;9.238;2023-06-05T16:00:17;6.13;;;5.53;;
735;SDS011;352;48.626;9.238;2023-06-05T16:02:45;7.20;;;5.80;;
735;SDS011;352;48.626;9.238;2023-06-05T16:05:12;7.13;;;6.43;;